createdAt,value
2019-03-25T00:01:20.636Z,11.40
2019-03-25T00:03:49.356Z,11.30
2019-03-25T00:06:18.387Z,10.83
2019-03-25T00:08:47.283Z,10.47
2019-03-25T00:11:15.906Z,11.13
2019-03-25T00:13:44.606Z,11.23
2019-03-25T00:16:13.356Z,10.93
2019-03-25T00:18:42.071Z,10.37
2019-03-25T00:21:10.652Z,12.10
2019-03-25T00:23:39.423Z,11.00
2019-03-25T00:26:08.027Z,10.67
2019-03-25T00:28:36.811Z,10.63
2019-03-25T00:31:05.471Z,10.20
2019-03-25T00:33:34.127Z,10.37
2019-03-25T00:36:02.857Z,10.87
2019-03-25T00:38:31.536Z,10.43
2019-03-25T00:41:00.228Z,10.10
2019-03-25T00:43:28.938Z,10.60
2019-03-25T00:45:57.596Z,10.33
2019-03-25T00:48:26.092Z,9.77
2019-03-25T00:50:56.228Z,10.33
2019-03-25T00:53:24.873Z,10.67
2019-03-25T00:55:53.488Z,10.47
2019-03-25T00:58:22.164Z,10.57
2019-03-25T01:00:50.914Z,10.27
2019-03-25T01:03:19.649Z,9.87
2019-03-25T01:05:48.340Z,9.60
2019-03-25T01:08:17.072Z,10.27
2019-03-25T01:10:45.796Z,9.47
2019-03-25T01:13:14.507Z,9.23
2019-03-25T01:15:43.351Z,9.97
2019-03-25T01:18:16.953Z,9.23
2019-03-25T01:20:42.698Z,9.67
2019-03-25T01:23:30.870Z,10.53
2019-03-25T01:25:59.319Z,10.47
2019-03-25T01:28:28.198Z,10.17
2019-03-25T01:30:57.051Z,10.10
2019-03-25T01:33:25.793Z,10.63
2019-03-25T01:35:54.559Z,10.30
2019-03-25T01:38:23.317Z,9.93
2019-03-25T01:40:52.034Z,10.57
2019-03-25T01:43:20.573Z,10.20
2019-03-25T01:45:49.319Z,10.30
2019-03-25T01:48:18.117Z,10.43
2019-03-25T01:50:46.989Z,10.80
2019-03-25T01:53:16.596Z,10.80
2019-03-25T01:55:45.392Z,11.23
2019-03-25T01:58:14.077Z,11.20
2019-03-25T02:00:42.929Z,10.60
2019-03-25T02:03:11.591Z,11.17
2019-03-25T02:05:40.259Z,11.33
2019-03-25T02:08:08.896Z,11.20
2019-03-25T02:10:37.688Z,11.03
2019-03-25T02:13:06.388Z,11.10
2019-03-25T02:15:35.608Z,9.90
2019-03-25T02:18:04.199Z,11.20
2019-03-25T02:20:32.854Z,10.90
2019-03-25T02:23:01.947Z,11.90
2019-03-25T02:25:30.848Z,11.17
2019-03-25T02:27:59.633Z,11.17
2019-03-25T02:30:28.545Z,11.27
2019-03-25T02:32:57.221Z,10.10
2019-03-25T02:35:26.097Z,11.33
2019-03-25T02:37:54.979Z,12.20
2019-03-25T02:40:23.696Z,10.67
2019-03-25T02:42:52.464Z,10.30
2019-03-25T02:45:21.192Z,11.17
2019-03-25T02:47:50.024Z,11.37
2019-03-25T02:50:18.713Z,10.03
2019-03-25T02:52:47.404Z,10.90
2019-03-25T02:55:17.030Z,11.03
2019-03-25T02:57:45.700Z,11.27
2019-03-25T03:00:18.399Z,10.70
2019-03-25T03:02:47.254Z,10.47
2019-03-25T03:05:16.059Z,11.53
2019-03-25T03:07:44.912Z,11.50
2019-03-25T03:10:13.817Z,12.40
2019-03-25T03:12:42.617Z,11.77
2019-03-25T03:15:11.569Z,10.80
2019-03-25T03:17:40.208Z,11.03
2019-03-25T03:20:09.238Z,10.63
2019-03-25T03:22:38.015Z,11.13
2019-03-25T03:25:07.053Z,9.07
2019-03-25T03:27:35.856Z,9.80
2019-03-25T03:30:04.719Z,9.70
2019-03-25T03:32:33.634Z,9.03
2019-03-25T03:35:02.362Z,9.40
2019-03-25T03:37:31.169Z,9.40
2019-03-25T03:39:59.884Z,9.33
2019-03-25T03:42:28.606Z,8.70
2019-03-25T03:44:57.421Z,8.67
2019-03-25T03:47:26.257Z,8.57
2019-03-25T03:49:55.051Z,8.77
2019-03-25T03:52:23.875Z,9.23
2019-03-25T03:54:52.850Z,9.40
2019-03-25T03:57:23.512Z,9.03
2019-03-25T03:59:52.305Z,8.87
2019-03-25T04:02:21.148Z,8.50
2019-03-25T04:04:49.850Z,9.90
2019-03-25T04:07:18.778Z,8.60
2019-03-25T04:09:47.401Z,9.37
2019-03-25T04:12:16.178Z,9.63
2019-03-25T04:14:45.229Z,9.17
2019-03-25T04:17:13.913Z,8.20
2019-03-25T04:19:42.649Z,8.90
2019-03-25T04:22:11.259Z,8.53
2019-03-25T04:24:40.064Z,9.10
2019-03-25T04:27:08.725Z,8.30
2019-03-25T04:29:37.450Z,9.30
2019-03-25T04:32:06.406Z,8.53
2019-03-25T04:34:35.245Z,9.33
2019-03-25T04:37:04.131Z,8.00
2019-03-25T04:39:32.876Z,8.30
2019-03-25T04:42:01.644Z,7.73
2019-03-25T04:44:31.506Z,7.60
2019-03-25T04:47:00.248Z,6.77
2019-03-25T04:49:28.912Z,7.43
2019-03-25T04:51:58.154Z,7.60
2019-03-25T04:54:26.888Z,7.70
2019-03-25T04:56:55.584Z,7.00
2019-03-25T04:59:24.428Z,6.87
2019-03-25T05:01:52.885Z,7.50
2019-03-25T05:04:21.446Z,7.97
2019-03-25T05:06:50.194Z,11.67
2019-03-25T05:09:18.908Z,12.53
2019-03-25T05:11:47.635Z,13.17
2019-03-25T05:14:16.670Z,13.03
2019-03-25T05:16:45.488Z,17.23
2019-03-25T05:19:13.988Z,15.60
2019-03-25T05:21:42.697Z,14.03
2019-03-25T05:24:11.617Z,12.90
2019-03-25T05:26:50.494Z,13.77
2019-03-25T05:29:10.999Z,10.00
2019-03-25T05:31:39.685Z,11.17
2019-03-25T05:34:08.337Z,9.73
2019-03-25T05:36:37.162Z,7.80
2019-03-25T05:39:07.432Z,7.30
2019-03-25T05:41:35.928Z,8.00
2019-03-25T05:44:04.664Z,8.60
2019-03-25T05:46:33.402Z,9.90
2019-03-25T05:49:02.282Z,9.60
2019-03-25T05:51:31.067Z,11.00
2019-03-25T05:53:59.762Z,11.63
2019-03-25T05:56:28.460Z,10.83
2019-03-25T05:58:57.201Z,10.50
2019-03-25T06:01:26.305Z,11.00
2019-03-25T06:03:54.895Z,10.27
2019-03-25T06:06:23.740Z,10.90
2019-03-25T06:08:52.268Z,10.50
2019-03-25T06:11:20.963Z,10.07
2019-03-25T06:13:49.701Z,9.23
2019-03-25T06:16:18.538Z,10.63
2019-03-25T06:18:47.114Z,9.97
2019-03-25T06:21:15.756Z,10.73
2019-03-25T06:23:44.288Z,15.73
2019-03-25T06:26:12.963Z,20.97
2019-03-25T06:28:41.694Z,21.20
2019-03-25T06:31:10.564Z,20.43
2019-03-25T06:33:39.236Z,24.00
2019-03-25T06:36:07.973Z,22.07
2019-03-25T06:38:36.810Z,21.93
2019-03-25T06:41:05.565Z,22.77
2019-03-25T06:43:34.299Z,20.33
2019-03-25T06:46:02.988Z,20.70
2019-03-25T06:48:31.652Z,21.33
2019-03-25T06:51:00.590Z,21.30
2019-03-25T06:53:29.316Z,25.67
2019-03-25T06:55:57.910Z,27.50
2019-03-25T06:58:26.743Z,24.27
2019-03-25T07:00:55.568Z,22.07
2019-03-25T07:03:24.369Z,18.40
2019-03-25T07:05:53.232Z,16.47
2019-03-25T07:08:27.680Z,16.60
2019-03-25T07:10:56.379Z,16.20
2019-03-25T07:13:25.254Z,17.10
2019-03-25T07:15:53.876Z,16.87
2019-03-25T07:18:22.494Z,15.70
2019-03-25T07:20:51.409Z,14.77
2019-03-25T07:23:20.059Z,15.80
2019-03-25T07:25:48.736Z,14.77
2019-03-25T07:28:17.364Z,16.03
2019-03-25T07:30:46.035Z,16.83
2019-03-25T07:33:14.897Z,16.50
2019-03-25T07:35:43.551Z,16.10
2019-03-25T07:38:12.300Z,15.93
2019-03-25T07:40:41.052Z,16.23
2019-03-25T07:43:09.790Z,16.43
2019-03-25T07:45:38.501Z,15.37
2019-03-25T07:48:07.213Z,17.10
2019-03-25T07:50:35.830Z,17.00
2019-03-25T07:53:04.636Z,15.93
2019-03-25T07:55:33.644Z,16.10
2019-03-25T07:58:02.549Z,14.27
2019-03-25T08:00:31.141Z,14.90
2019-03-25T08:03:00.027Z,14.23
2019-03-25T08:05:28.669Z,14.90
2019-03-25T08:07:57.296Z,13.70
2019-03-25T08:10:33.558Z,15.23
2019-03-25T08:13:02.177Z,14.50
2019-03-25T08:15:30.971Z,14.00
2019-03-25T08:17:59.960Z,13.77
2019-03-25T08:20:28.763Z,14.03
2019-03-25T08:22:57.589Z,13.10
2019-03-25T08:25:26.515Z,13.93
2019-03-25T08:27:59.924Z,14.00
2019-03-25T08:30:25.970Z,13.63
2019-03-25T08:32:54.723Z,14.77
2019-03-25T08:35:23.555Z,15.07
2019-03-25T08:37:52.240Z,14.67
2019-03-25T08:40:20.797Z,13.97
2019-03-25T08:42:49.596Z,14.13
2019-03-25T08:45:18.416Z,14.20
2019-03-25T08:47:47.141Z,14.23
2019-03-25T08:50:15.851Z,15.30
2019-03-25T08:52:44.450Z,14.73
2019-03-25T08:55:13.285Z,14.37
2019-03-25T08:57:41.734Z,14.07
2019-03-25T09:00:10.869Z,14.13
2019-03-25T09:02:39.568Z,14.90
2019-03-25T09:05:08.609Z,14.40
2019-03-25T09:07:37.367Z,14.73
2019-03-25T09:10:06.593Z,13.93
2019-03-25T09:12:35.387Z,13.27
2019-03-25T09:15:05.401Z,13.77
2019-03-25T09:17:34.174Z,12.80
2019-03-25T09:20:03.075Z,13.30
2019-03-25T09:22:31.714Z,11.33
2019-03-25T09:25:00.784Z,12.60
2019-03-25T09:27:29.423Z,12.50
2019-03-25T09:29:58.197Z,11.87
2019-03-25T09:32:26.875Z,11.50
2019-03-25T09:34:55.576Z,11.90
2019-03-25T09:37:24.349Z,12.17
2019-03-25T09:39:53.172Z,11.67
2019-03-25T09:42:21.712Z,11.90
2019-03-25T09:44:50.544Z,12.23
2019-03-25T09:47:19.465Z,12.03
2019-03-25T09:49:48.220Z,11.20
2019-03-25T09:52:16.975Z,12.20
2019-03-25T09:54:45.723Z,11.50
2019-03-25T09:57:14.504Z,11.73
2019-03-25T09:59:43.136Z,12.30
2019-03-25T10:02:11.873Z,11.97
2019-03-25T10:04:40.613Z,11.00
2019-03-25T10:07:28.486Z,10.00
2019-03-25T10:09:57.435Z,11.20
2019-03-25T10:12:26.121Z,10.60
2019-03-25T10:14:54.986Z,10.40
2019-03-25T10:17:23.620Z,9.83
2019-03-25T10:19:52.297Z,9.67
2019-03-25T10:22:21.094Z,9.50
2019-03-25T10:24:49.875Z,9.17
2019-03-25T10:27:18.551Z,9.17
2019-03-25T10:29:47.648Z,8.90
2019-03-25T10:32:16.425Z,10.40
2019-03-25T10:34:45.221Z,8.37
2019-03-25T10:37:14.060Z,9.20
2019-03-25T10:39:42.889Z,9.33
2019-03-25T10:42:11.793Z,9.73
2019-03-25T10:44:40.678Z,9.63
2019-03-25T10:47:09.352Z,10.23
2019-03-25T10:49:38.027Z,9.47
2019-03-25T10:52:06.784Z,9.90
2019-03-25T10:54:35.583Z,9.98
2019-03-25T10:57:04.794Z,9.13
2019-03-25T10:59:33.660Z,9.00
2019-03-25T11:02:02.984Z,9.73
2019-03-25T11:04:31.683Z,9.00
2019-03-25T11:07:00.538Z,9.48
2019-03-25T11:09:29.067Z,8.35
2019-03-25T11:11:57.873Z,8.70
2019-03-25T11:14:26.696Z,8.65
2019-03-25T11:16:55.308Z,8.33
2019-03-25T11:19:23.891Z,9.70
2019-03-25T11:21:52.453Z,8.23
2019-03-25T11:24:21.238Z,8.55
2019-03-25T11:26:49.858Z,9.23
2019-03-25T11:29:18.699Z,9.33
2019-03-25T11:31:47.455Z,8.45
2019-03-25T11:34:16.216Z,9.23
2019-03-25T11:36:44.993Z,8.30
2019-03-25T11:39:13.616Z,8.80
2019-03-25T11:41:42.402Z,9.13
2019-03-25T11:44:11.237Z,8.30
2019-03-25T11:46:39.882Z,8.28
2019-03-25T11:49:08.525Z,9.73
2019-03-25T11:51:37.476Z,9.25
2019-03-25T11:54:06.313Z,8.93
2019-03-25T11:56:35.306Z,8.50
2019-03-25T11:59:04.364Z,9.05
2019-03-25T12:01:33.213Z,9.10
2019-03-25T12:04:01.813Z,9.75
2019-03-25T12:06:30.628Z,9.28
2019-03-25T12:08:59.040Z,9.63
2019-03-25T12:11:27.620Z,9.13
2019-03-25T12:13:56.586Z,8.70
2019-03-25T12:16:25.279Z,9.25
2019-03-25T12:18:54.091Z,9.45
2019-03-25T12:21:41.569Z,9.53
2019-03-25T12:24:10.302Z,9.30
2019-03-25T12:26:38.691Z,10.08
2019-03-25T12:29:07.504Z,9.78
2019-03-25T12:31:36.897Z,9.33
2019-03-25T12:34:05.614Z,9.80
2019-03-25T12:36:34.083Z,9.70
2019-03-25T12:39:04.468Z,9.45
2019-03-25T12:41:33.255Z,9.25
2019-03-25T12:44:01.639Z,9.23
2019-03-25T12:46:30.292Z,9.78
2019-03-25T12:48:59.003Z,10.10
2019-03-25T12:51:27.844Z,10.68
2019-03-25T12:53:56.561Z,9.73
2019-03-25T12:56:25.366Z,10.32
2019-03-25T12:58:54.215Z,8.95
2019-03-25T13:01:22.671Z,10.82
2019-03-25T13:03:51.456Z,10.03
2019-03-25T13:06:20.275Z,10.20
2019-03-25T13:08:49.187Z,10.07
2019-03-25T13:11:17.890Z,9.37
2019-03-25T13:13:46.742Z,9.63
2019-03-25T13:16:15.389Z,9.40
2019-03-25T13:18:43.756Z,10.10
2019-03-25T13:21:12.663Z,9.43
2019-03-25T13:23:41.248Z,10.70
2019-03-25T13:26:10.180Z,10.33
2019-03-25T13:28:38.934Z,9.43
2019-03-25T13:31:07.803Z,11.13
2019-03-25T13:33:36.502Z,9.70
2019-03-25T13:36:05.090Z,9.03
2019-03-25T13:38:33.719Z,7.90
2019-03-25T13:41:02.502Z,9.20
2019-03-25T13:43:31.325Z,9.20
2019-03-25T13:46:05.521Z,10.03
2019-03-25T13:48:30.451Z,9.97
2019-03-25T13:50:59.137Z,9.83
2019-03-25T13:53:27.444Z,10.40
2019-03-25T13:55:56.251Z,8.97
2019-03-25T13:58:25.120Z,8.93
2019-03-25T14:00:53.639Z,9.20
2019-03-25T14:03:22.445Z,8.70
2019-03-25T14:05:51.273Z,8.77
2019-03-25T14:08:20.123Z,9.20
2019-03-25T14:10:49.030Z,9.13
2019-03-25T14:13:18.038Z,9.33
2019-03-25T14:15:46.721Z,8.83
2019-03-25T14:18:15.683Z,8.93
2019-03-25T14:20:44.449Z,9.13
2019-03-25T14:23:13.261Z,8.87
2019-03-25T14:25:42.032Z,7.80
2019-03-25T14:28:13.079Z,7.93
2019-03-25T14:30:41.849Z,7.83
2019-03-25T14:33:10.462Z,7.63
2019-03-25T14:35:40.134Z,7.67
2019-03-25T14:38:08.828Z,7.37
2019-03-25T14:40:37.880Z,7.60
2019-03-25T14:43:06.683Z,8.23
2019-03-25T14:45:35.727Z,6.93
2019-03-25T14:48:04.525Z,7.23
2019-03-25T14:50:33.347Z,7.77
2019-03-25T14:53:02.247Z,6.70
2019-03-25T14:55:30.993Z,7.43
2019-03-25T14:57:59.794Z,7.47
2019-03-25T15:00:28.761Z,8.77
2019-03-25T15:02:57.510Z,6.90
2019-03-25T15:05:26.366Z,7.37
2019-03-25T15:07:54.996Z,6.87
2019-03-25T15:10:23.773Z,6.50
2019-03-25T15:12:52.626Z,6.40
2019-03-25T15:15:21.575Z,7.23
2019-03-25T15:17:50.243Z,6.77
2019-03-25T15:20:19.311Z,6.80
2019-03-25T15:22:48.015Z,6.67
2019-03-25T15:25:16.811Z,6.27
2019-03-25T15:27:45.662Z,6.63
2019-03-25T15:30:14.731Z,6.97
2019-03-25T15:32:43.480Z,6.87
2019-03-25T15:35:12.542Z,6.93
2019-03-25T15:37:41.308Z,7.10
2019-03-25T15:40:10.694Z,6.70
2019-03-25T15:42:39.468Z,7.03
2019-03-25T15:45:09.417Z,6.90
2019-03-25T15:47:38.325Z,6.70
2019-03-25T15:50:07.759Z,6.93
2019-03-25T15:52:36.681Z,7.20
2019-03-25T15:55:05.735Z,6.07
2019-03-25T15:57:34.614Z,6.70
2019-03-25T16:00:04.277Z,6.40
2019-03-25T16:02:32.862Z,6.43
2019-03-25T16:05:20.507Z,6.80
2019-03-25T16:07:49.129Z,6.70
2019-03-25T16:10:17.930Z,7.43
2019-03-25T16:12:46.913Z,7.03
2019-03-25T16:15:39.777Z,7.33
2019-03-25T16:18:08.618Z,7.90
2019-03-25T16:20:37.351Z,7.20
2019-03-25T16:23:05.947Z,7.57
2019-03-25T16:25:34.605Z,6.97
2019-03-25T16:28:03.540Z,7.03
2019-03-25T16:30:32.294Z,7.00
2019-03-25T16:33:01.187Z,6.47
2019-03-25T16:35:29.918Z,7.00
2019-03-25T16:37:58.689Z,7.07
2019-03-25T16:40:27.513Z,7.57
2019-03-25T16:42:56.235Z,6.43
2019-03-25T16:45:25.255Z,6.47
2019-03-25T16:47:54.082Z,6.50
2019-03-25T16:50:23.109Z,6.20
2019-03-25T16:52:51.840Z,6.60
2019-03-25T16:55:20.636Z,6.40
2019-03-25T16:57:49.414Z,6.63
2019-03-25T17:00:26.902Z,7.57
2019-03-25T17:02:48.229Z,6.80
2019-03-25T17:05:16.794Z,7.60
2019-03-25T17:07:45.527Z,7.50
2019-03-25T17:10:14.664Z,6.97
2019-03-25T17:12:43.435Z,7.70
2019-03-25T17:15:12.639Z,7.50
2019-03-25T17:17:42.272Z,7.47
2019-03-25T17:20:12.275Z,8.67
2019-03-25T17:22:41.347Z,14.97
2019-03-25T17:25:10.936Z,16.90
2019-03-25T17:27:40.339Z,16.73
2019-03-25T17:30:13.471Z,16.43
2019-03-25T17:32:42.442Z,17.53
2019-03-25T17:35:11.337Z,16.00
2019-03-25T17:37:40.376Z,14.73
2019-03-25T17:40:09.179Z,14.00
2019-03-25T17:42:39.160Z,13.50
2019-03-25T17:45:08.836Z,14.50
2019-03-25T17:47:37.657Z,14.97
2019-03-25T17:50:06.999Z,16.57
2019-03-25T17:52:36.390Z,16.50
2019-03-25T17:55:05.911Z,18.00
2019-03-25T17:57:35.350Z,16.03
2019-03-25T18:00:06.953Z,18.30
2019-03-25T18:02:35.559Z,31.80
2019-03-25T18:05:04.602Z,34.47
2019-03-25T18:07:34.113Z,34.73
2019-03-25T18:10:03.630Z,32.33
2019-03-25T18:12:38.755Z,31.30
2019-03-25T18:15:04.368Z,29.77
2019-03-25T18:17:33.080Z,23.00
2019-03-25T18:20:02.553Z,24.00
2019-03-25T18:22:39.498Z,20.40
2019-03-25T18:25:03.638Z,18.50
2019-03-25T18:27:32.335Z,17.93
2019-03-25T18:30:01.796Z,16.17
2019-03-25T18:32:30.534Z,15.97
2019-03-25T18:34:59.477Z,14.27
2019-03-25T18:37:27.891Z,16.87
2019-03-25T18:39:56.491Z,20.17
2019-03-25T18:42:25.336Z,20.00
2019-03-25T18:44:54.511Z,20.53
2019-03-25T18:47:23.735Z,19.17
2019-03-25T18:49:53.418Z,20.43
2019-03-25T18:52:22.164Z,19.60
2019-03-25T18:54:51.838Z,19.50
2019-03-25T18:57:21.311Z,21.13
2019-03-25T18:59:50.484Z,22.20
2019-03-25T19:02:20.232Z,19.03
2019-03-25T19:04:49.650Z,18.83
2019-03-25T19:07:19.313Z,18.10
2019-03-25T19:09:48.271Z,15.73
2019-03-25T19:12:17.921Z,16.37
2019-03-25T19:14:47.238Z,16.13
2019-03-25T19:17:15.912Z,13.97
2019-03-25T19:19:44.567Z,15.23
2019-03-25T19:22:14.082Z,11.73
2019-03-25T19:24:42.882Z,10.37
2019-03-25T19:27:12.126Z,9.60
2019-03-25T19:29:40.727Z,8.47
2019-03-25T19:32:10.611Z,8.60
2019-03-25T19:34:39.954Z,7.17
2019-03-25T19:37:09.459Z,6.83
2019-03-25T19:39:38.274Z,7.13
2019-03-25T19:42:07.736Z,7.43
2019-03-25T19:44:36.994Z,6.20
2019-03-25T19:47:05.665Z,6.80
2019-03-25T19:49:35.178Z,6.90
2019-03-25T19:52:04.921Z,7.10
2019-03-25T19:54:33.733Z,7.30
2019-03-25T19:57:02.921Z,7.57
2019-03-25T19:59:32.147Z,8.00
2019-03-25T20:02:01.664Z,7.87
2019-03-25T20:04:30.277Z,6.83
2019-03-25T20:06:59.060Z,6.70
2019-03-25T20:09:28.313Z,6.47
2019-03-25T20:11:57.667Z,6.57
2019-03-25T20:14:26.412Z,6.10
2019-03-25T20:16:55.384Z,6.13
2019-03-25T20:19:24.937Z,6.90
2019-03-25T20:21:53.801Z,6.07
2019-03-25T20:24:23.664Z,6.23
2019-03-25T20:26:53.129Z,6.17
2019-03-25T20:29:23.600Z,5.90
2019-03-25T20:31:52.866Z,5.37
2019-03-25T20:34:21.500Z,5.57
2019-03-25T20:36:50.357Z,5.87
2019-03-25T20:39:19.470Z,6.63
2019-03-25T20:41:48.307Z,6.63
2019-03-25T20:44:17.253Z,7.23
2019-03-25T20:46:46.342Z,6.47
2019-03-25T20:49:17.787Z,10.00
2019-03-25T20:51:47.274Z,8.43
2019-03-25T20:54:16.122Z,6.97
2019-03-25T20:56:47.023Z,6.78
2019-03-25T20:59:15.713Z,6.93
2019-03-25T21:01:45.280Z,5.72
2019-03-25T21:04:14.672Z,6.10
2019-03-25T21:06:43.969Z,5.00
2019-03-25T21:09:12.655Z,5.40
2019-03-25T21:11:41.457Z,5.00
2019-03-25T21:14:12.005Z,5.53
2019-03-25T21:16:41.534Z,5.73
2019-03-25T21:19:10.549Z,5.67
2019-03-25T21:21:39.509Z,5.70
2019-03-25T21:24:09.121Z,5.63
2019-03-25T21:26:38.482Z,5.43
2019-03-25T21:29:08.158Z,5.87
2019-03-25T21:31:39.019Z,5.37
2019-03-25T21:34:07.730Z,5.50
2019-03-25T21:36:37.648Z,5.30
2019-03-25T21:39:07.808Z,5.53
2019-03-25T21:41:37.118Z,5.57
2019-03-25T21:44:05.736Z,5.20
2019-03-25T21:46:35.417Z,5.47
2019-03-25T21:49:04.393Z,7.60
2019-03-25T21:51:34.161Z,6.07
2019-03-25T21:54:03.526Z,5.77
2019-03-25T21:56:33.135Z,5.83
2019-03-25T21:59:02.749Z,4.70
2019-03-25T22:01:32.318Z,7.67
2019-03-25T22:04:01.980Z,6.00
2019-03-25T22:06:31.503Z,5.33
2019-03-25T22:09:00.970Z,5.80
2019-03-25T22:11:30.339Z,5.53
2019-03-25T22:13:59.492Z,5.47
2019-03-25T22:16:28.104Z,5.50
2019-03-25T22:18:56.766Z,5.30
2019-03-25T22:21:26.180Z,5.10
2019-03-25T22:23:54.780Z,5.50
2019-03-25T22:26:24.410Z,5.50
2019-03-25T22:28:53.199Z,7.27
2019-03-25T22:31:22.377Z,7.83
2019-03-25T22:33:51.124Z,7.43
2019-03-25T22:36:20.778Z,6.43
2019-03-25T22:38:50.424Z,6.37
2019-03-25T22:41:19.076Z,6.47
2019-03-25T22:43:48.428Z,6.00
2019-03-25T22:46:17.767Z,5.50
2019-03-25T22:48:47.153Z,5.57
2019-03-25T22:51:15.879Z,5.27
2019-03-25T22:53:44.686Z,4.97
2019-03-25T22:56:13.379Z,4.27
2019-03-25T22:58:42.035Z,5.00
2019-03-25T23:01:10.611Z,4.73
2019-03-25T23:03:39.848Z,5.27
2019-03-25T23:06:08.470Z,4.03
2019-03-25T23:08:37.283Z,4.47
2019-03-25T23:11:06.272Z,5.23
2019-03-25T23:13:34.938Z,5.67
2019-03-25T23:16:03.719Z,5.00
2019-03-25T23:18:32.841Z,4.67
2019-03-25T23:21:01.618Z,4.60
2019-03-25T23:23:30.410Z,4.83
2019-03-25T23:25:59.251Z,4.40
2019-03-25T23:28:27.758Z,5.13
2019-03-25T23:30:56.666Z,4.87
2019-03-25T23:33:26.387Z,4.80
2019-03-25T23:35:55.058Z,4.73
2019-03-25T23:38:23.672Z,4.47
2019-03-25T23:40:52.391Z,4.70
2019-03-25T23:43:20.918Z,4.57
2019-03-25T23:45:49.686Z,4.90
2019-03-25T23:48:18.348Z,4.30
2019-03-25T23:50:46.862Z,4.70
2019-03-25T23:53:15.678Z,4.23
2019-03-25T23:55:45.437Z,4.07
2019-03-25T23:58:14.036Z,4.10
